createdAt,value
2019-06-26T00:02:19.396Z,98828.27
2019-06-26T00:04:50.072Z,98840.31
2019-06-26T00:07:20.709Z,98828.63
2019-06-26T00:09:50.990Z,98836.66
2019-06-26T00:12:22.310Z,98824.94
2019-06-26T00:14:52.601Z,98833.97
2019-06-26T00:17:22.904Z,98822.77
2019-06-26T00:19:53.305Z,98828.63
2019-06-26T00:22:23.602Z,98808.27
2019-06-26T00:24:53.875Z,98810.94
2019-06-26T00:27:24.426Z,98798.75
2019-06-26T00:29:56.890Z,98795.24
2019-06-26T00:32:27.945Z,98801.43
2019-06-26T00:34:58.616Z,98799.77
2019-06-26T00:37:28.913Z,98817.63
2019-06-26T00:39:59.206Z,98799.26
2019-06-26T00:42:29.785Z,98817.95
2019-06-26T00:45:00.073Z,98811.13
2019-06-26T00:47:30.386Z,98819.80
2019-06-26T00:50:01.296Z,98830.33
2019-06-26T00:52:32.219Z,98820.31
2019-06-26T00:55:05.602Z,98831.67
2019-06-26T00:57:37.573Z,98825.98
2019-06-26T01:00:10.797Z,98836.05
2019-06-26T01:02:41.392Z,98822.34
2019-06-26T01:05:13.525Z,98831.02
2019-06-26T01:07:44.379Z,98809.50
2019-06-26T01:10:15.272Z,98841.72
2019-06-26T01:12:45.724Z,98846.39
2019-06-26T01:15:17.278Z,98817.02
2019-06-26T01:17:47.879Z,98815.86
2019-06-26T01:20:18.559Z,98806.34
2019-06-26T01:22:49.772Z,98802.52
2019-06-26T01:25:21.857Z,98802.34
2019-06-26T01:27:52.169Z,98830.40
2019-06-26T01:30:23.782Z,98825.38
2019-06-26T01:32:54.328Z,98817.88
2019-06-26T01:35:25.919Z,98806.02
2019-06-26T01:37:56.242Z,98799.37
2019-06-26T01:40:28.465Z,98795.03
2019-06-26T01:42:58.865Z,98788.02
2019-06-26T01:45:29.452Z,98795.20
2019-06-26T01:48:01.618Z,98804.72
2019-06-26T01:50:33.379Z,98813.91
2019-06-26T01:53:03.655Z,98808.23
2019-06-26T01:55:34.684Z,98807.58
2019-06-26T01:58:04.993Z,98817.09
2019-06-26T02:00:36.792Z,98803.23
2019-06-26T02:03:07.180Z,98808.08
2019-06-26T02:05:37.496Z,98806.75
2019-06-26T02:08:07.837Z,98817.27
2019-06-26T02:10:39.907Z,98826.45
2019-06-26T02:13:10.580Z,98831.95
2019-06-26T02:15:40.947Z,98829.13
2019-06-26T02:18:40.292Z,98829.13
2019-06-26T02:21:10.703Z,98833.14
2019-06-26T02:23:41.018Z,98823.63
2019-06-26T02:26:11.948Z,98821.78
2019-06-26T02:28:43.682Z,98833.66
2019-06-26T02:31:14.749Z,98855.35
2019-06-26T02:33:45.041Z,98850.36
2019-06-26T02:36:15.341Z,98859.37
2019-06-26T02:38:45.641Z,98843.67
2019-06-26T02:41:15.958Z,98855.86
2019-06-26T02:43:46.392Z,98860.88
2019-06-26T02:46:17.540Z,98861.21
2019-06-26T02:48:48.054Z,98914.14
2019-06-26T02:51:18.674Z,98899.63
2019-06-26T02:53:48.968Z,98920.69
2019-06-26T02:56:20.157Z,98902.81
2019-06-26T02:58:50.530Z,98907.98
2019-06-26T03:01:22.167Z,98904.15
2019-06-26T03:03:53.571Z,98898.14
2019-06-26T03:06:23.864Z,98904.66
2019-06-26T03:08:54.386Z,98899.98
2019-06-26T03:11:29.727Z,98911.67
2019-06-26T03:14:00.559Z,98923.03
2019-06-26T03:16:30.886Z,98922.20
2019-06-26T03:19:01.860Z,98927.37
2019-06-26T03:21:33.653Z,98948.77
2019-06-26T03:24:03.941Z,98950.10
2019-06-26T03:26:34.261Z,98955.45
2019-06-26T03:29:05.979Z,98954.44
2019-06-26T03:31:36.271Z,98952.78
2019-06-26T03:34:06.788Z,98939.42
2019-06-26T03:36:37.445Z,98958.31
2019-06-26T03:39:08.678Z,98947.78
2019-06-26T03:41:39.038Z,98968.84
2019-06-26T03:44:09.319Z,98960.48
2019-06-26T03:46:39.630Z,98965.84
2019-06-26T03:49:09.947Z,98985.05
2019-06-26T03:51:40.371Z,99002.45
2019-06-26T03:54:14.669Z,99011.66
2019-06-26T03:56:44.980Z,99012.99
2019-06-26T03:59:15.297Z,99029.71
2019-06-26T04:01:48.385Z,99041.91
2019-06-26T04:04:19.100Z,99039.74
2019-06-26T04:06:49.732Z,99055.78
2019-06-26T04:09:20.077Z,99082.36
2019-06-26T04:11:51.481Z,99083.88
2019-06-26T04:14:22.635Z,99103.76
2019-06-26T04:16:52.931Z,99094.23
2019-06-26T04:19:23.318Z,99091.55
2019-06-26T04:21:53.623Z,99076.02
2019-06-26T04:24:23.908Z,99097.75
2019-06-26T04:26:54.184Z,99100.92
2019-06-26T04:29:24.517Z,99097.92
2019-06-26T04:31:54.837Z,99087.56
2019-06-26T04:34:25.162Z,99113.64
2019-06-26T04:36:55.612Z,99096.25
2019-06-26T04:39:25.918Z,99073.87
2019-06-26T04:41:56.271Z,99048.63
2019-06-26T04:44:26.612Z,99082.73
2019-06-26T04:46:57.244Z,99067.53
2019-06-26T04:49:27.731Z,99048.81
2019-06-26T04:51:58.754Z,99050.47
2019-06-26T04:54:29.737Z,99041.96
2019-06-26T04:57:00.280Z,99068.86
2019-06-26T04:59:34.162Z,99072.88
2019-06-26T05:02:06.736Z,99065.02
2019-06-26T05:04:37.377Z,99087.26
2019-06-26T05:07:08.054Z,99107.65
2019-06-26T05:09:38.668Z,99111.66
2019-06-26T05:12:08.992Z,99127.70
2019-06-26T05:14:39.304Z,99157.48
2019-06-26T05:17:10.339Z,99113.69
2019-06-26T05:19:42.081Z,99087.94
2019-06-26T05:22:12.421Z,99102.48
2019-06-26T05:24:46.229Z,99132.08
2019-06-26T05:27:18.389Z,99163.67
2019-06-26T05:29:49.359Z,99193.63
2019-06-26T05:32:20.873Z,99223.23
2019-06-26T05:34:51.210Z,99225.41
2019-06-26T05:37:21.510Z,99241.64
2019-06-26T05:39:54.749Z,99262.55
2019-06-26T05:42:25.007Z,99242.14
2019-06-26T05:44:58.135Z,99239.47
2019-06-26T05:47:29.395Z,99260.55
2019-06-26T05:50:00.216Z,99291.00
2019-06-26T05:52:30.594Z,99320.51
2019-06-26T05:55:01.073Z,99328.05
2019-06-26T05:57:31.382Z,99324.53
2019-06-26T06:00:01.707Z,99290.67
2019-06-26T06:02:32.058Z,99274.11
2019-06-26T06:05:02.454Z,99261.23
2019-06-26T06:07:33.927Z,99262.23
2019-06-26T06:10:04.506Z,99265.27
2019-06-26T06:12:34.801Z,99277.97
2019-06-26T06:15:05.619Z,99286.66
2019-06-26T06:17:35.915Z,99280.97
2019-06-26T06:20:07.982Z,99270.10
2019-06-26T06:22:38.294Z,99284.16
2019-06-26T06:25:08.699Z,99292.36
2019-06-26T06:27:41.494Z,99283.33
2019-06-26T06:30:12.097Z,99271.11
2019-06-26T06:32:43.998Z,99302.39
2019-06-26T06:35:16.385Z,99283.50
2019-06-26T06:37:46.665Z,99274.30
2019-06-26T06:40:17.295Z,99293.03
2019-06-26T06:42:48.126Z,99308.77
2019-06-26T06:45:18.824Z,99357.52
2019-06-26T06:47:50.104Z,99332.22
2019-06-26T06:50:20.497Z,99357.70
2019-06-26T06:52:50.798Z,99352.48
2019-06-26T06:55:21.974Z,99316.47
2019-06-26T06:57:52.701Z,99305.09
2019-06-26T07:00:23.095Z,99279.49
2019-06-26T07:02:54.468Z,99275.98
2019-06-26T07:05:25.938Z,99251.90
2019-06-26T07:07:56.229Z,99229.80
2019-06-26T07:10:26.647Z,99250.89
2019-06-26T07:12:57.009Z,99255.41
2019-06-26T07:15:29.357Z,99254.91
2019-06-26T07:18:00.065Z,99257.59
2019-06-26T07:20:30.378Z,99299.74
2019-06-26T07:23:04.817Z,99304.94
2019-06-26T07:25:35.113Z,99362.03
2019-06-26T07:28:05.486Z,99340.74
2019-06-26T07:30:35.913Z,99382.15
2019-06-26T07:33:06.372Z,99410.11
2019-06-26T07:35:36.943Z,99375.63
2019-06-26T07:38:18.281Z,99356.65
2019-06-26T07:40:49.173Z,99374.09
2019-06-26T07:43:20.694Z,99416.80
2019-06-26T07:45:51.892Z,99353.30
2019-06-26T07:48:23.693Z,99299.26
2019-06-26T07:50:54.406Z,99332.56
2019-06-26T07:53:24.714Z,99356.31
2019-06-26T07:55:57.671Z,99348.45
2019-06-26T07:58:28.411Z,99402.58
2019-06-26T08:01:01.098Z,99434.39
2019-06-26T08:03:31.461Z,99439.08
2019-06-26T08:06:02.183Z,99473.91
2019-06-26T08:08:32.687Z,99515.81
2019-06-26T08:11:06.281Z,99509.42
2019-06-26T08:13:35.029Z,99541.78
2019-06-26T08:16:05.312Z,99532.56
2019-06-26T08:18:35.908Z,99559.03
2019-06-26T08:21:12.508Z,99571.44
2019-06-26T08:23:38.184Z,99527.87
2019-06-26T08:26:08.484Z,99566.24
2019-06-26T08:28:38.821Z,99593.89
2019-06-26T08:31:09.910Z,99587.19
2019-06-26T08:33:40.246Z,99620.03
2019-06-26T08:36:10.895Z,99623.22
2019-06-26T08:38:41.212Z,99614.33
2019-06-26T08:41:11.843Z,99651.04
2019-06-26T08:43:42.280Z,99657.58
2019-06-26T08:46:12.609Z,99725.17
2019-06-26T08:48:44.060Z,99703.37
2019-06-26T08:51:14.365Z,99724.34
2019-06-26T08:53:45.039Z,99759.22
2019-06-26T08:56:15.637Z,99737.08
2019-06-26T08:58:46.365Z,99677.73
2019-06-26T09:01:16.699Z,99690.13
2019-06-26T09:03:47.399Z,99664.78
2019-06-26T09:06:18.777Z,99606.96
2019-06-26T09:08:49.172Z,99591.72
2019-06-26T09:11:19.786Z,99642.50
2019-06-26T09:13:50.129Z,99661.94
2019-06-26T09:16:20.472Z,99682.76
2019-06-26T09:19:03.055Z,99693.82
2019-06-26T09:21:36.123Z,99708.24
2019-06-26T09:24:06.590Z,99684.77
2019-06-26T09:26:37.060Z,99683.42
2019-06-26T09:29:07.669Z,99692.48
2019-06-26T09:31:39.912Z,99662.11
2019-06-26T09:34:10.306Z,99683.42
2019-06-26T09:36:52.161Z,99730.20
2019-06-26T09:39:22.471Z,99761.06
2019-06-26T09:41:52.792Z,99752.52
2019-06-26T09:44:23.839Z,99721.99
2019-06-26T09:46:54.148Z,99754.86
2019-06-26T09:49:24.746Z,99734.06
2019-06-26T09:51:55.069Z,99740.10
2019-06-26T09:54:25.361Z,99688.26
2019-06-26T09:56:56.641Z,99680.37
2019-06-26T09:59:29.595Z,99680.37
2019-06-26T10:01:59.915Z,99683.06
2019-06-26T10:04:30.308Z,99677.03
2019-06-26T10:07:01.137Z,99696.64
2019-06-26T10:09:31.538Z,99714.95
2019-06-26T10:12:01.862Z,99728.53
2019-06-26T10:14:46.467Z,99774.31
2019-06-26T10:17:04.174Z,99826.65
2019-06-26T10:19:35.405Z,99875.67
2019-06-26T10:22:10.047Z,99879.87
2019-06-26T10:24:40.343Z,99904.54
2019-06-26T10:27:10.666Z,100012.72
2019-06-26T10:29:40.944Z,100064.11
2019-06-26T10:34:43.303Z,99975.95
2019-06-26T10:37:13.640Z,99890.77
2019-06-26T10:39:44.042Z,99857.55
2019-06-26T10:42:14.430Z,99887.75
2019-06-26T10:44:45.187Z,99887.08
2019-06-26T10:47:17.558Z,99880.53
2019-06-26T10:49:47.808Z,99892.63
2019-06-26T10:52:18.227Z,99884.90
2019-06-26T10:54:48.536Z,99899.33
2019-06-26T10:57:19.252Z,99917.63
2019-06-26T10:59:49.720Z,99966.34
2019-06-26T11:02:19.986Z,99916.59
2019-06-26T11:04:50.425Z,99944.84
2019-06-26T11:07:20.916Z,99919.63
2019-06-26T11:09:51.284Z,99919.97
2019-06-26T11:12:22.137Z,99923.50
2019-06-26T11:14:53.077Z,99933.39
2019-06-26T11:17:23.689Z,99951.90
2019-06-26T11:19:55.572Z,99955.59
2019-06-26T11:22:28.671Z,99996.22
2019-06-26T11:24:59.056Z,99981.44
2019-06-26T11:27:29.385Z,100010.19
2019-06-26T11:30:00.652Z,99971.70
2019-06-26T11:32:31.048Z,99968.34
2019-06-26T11:35:01.371Z,100026.13
2019-06-26T11:37:32.025Z,100061.07
2019-06-26T11:40:02.380Z,100075.52
2019-06-26T11:42:33.169Z,100082.91
2019-06-26T11:45:03.501Z,100099.20
2019-06-26T11:47:34.128Z,100116.51
2019-06-26T11:50:05.611Z,100187.11
2019-06-26T11:52:37.457Z,100218.89
2019-06-26T11:55:10.223Z,100228.13
2019-06-26T11:57:40.600Z,100231.16
2019-06-26T12:00:12.825Z,100146.11
2019-06-26T12:02:43.116Z,100169.63
2019-06-26T12:05:13.968Z,100145.10
2019-06-26T12:07:44.295Z,100147.45
2019-06-26T12:10:15.891Z,100154.50
2019-06-26T12:12:46.863Z,100183.75
2019-06-26T12:15:19.328Z,100098.02
2019-06-26T12:17:51.070Z,100080.20
2019-06-26T12:20:23.167Z,100097.51
2019-06-26T12:22:54.628Z,100066.59
2019-06-26T12:25:25.951Z,100054.33
2019-06-26T12:27:56.154Z,100045.94
2019-06-26T12:30:26.480Z,100091.29
2019-06-26T12:33:03.064Z,100085.24
2019-06-26T12:35:36.745Z,100099.34
2019-06-26T12:38:07.109Z,100065.18
2019-06-26T12:40:49.287Z,100093.64
2019-06-26T12:43:20.886Z,100105.90
2019-06-26T12:45:51.165Z,100115.14
2019-06-26T12:48:22.573Z,100102.03
2019-06-26T12:50:52.973Z,100106.41
2019-06-26T12:53:23.445Z,100085.91
2019-06-26T12:55:55.205Z,100126.22
2019-06-26T12:58:25.618Z,100111.44
2019-06-26T13:00:57.473Z,100112.78
2019-06-26T13:03:27.980Z,100103.88
2019-06-26T13:05:58.484Z,100114.46
2019-06-26T13:08:30.399Z,100095.31
2019-06-26T13:11:00.729Z,100076.66
2019-06-26T13:13:31.553Z,100094.97
2019-06-26T13:16:01.852Z,100115.47
2019-06-26T13:18:33.139Z,100158.81
2019-06-26T13:21:05.258Z,100202.87
2019-06-26T13:23:36.105Z,100228.27
2019-06-26T13:26:06.962Z,100250.96
2019-06-26T13:28:39.013Z,100300.89
2019-06-26T13:31:09.749Z,100328.85
2019-06-26T13:34:21.177Z,100392.09
2019-06-26T13:36:56.479Z,100442.28
2019-06-26T13:39:49.341Z,100435.00
2019-06-26T13:42:46.395Z,100490.11
2019-06-26T13:45:23.869Z,100532.70
2019-06-26T13:47:55.750Z,100532.70
2019-06-26T13:51:08.280Z,100601.10
2019-06-26T13:53:59.770Z,100644.05
2019-06-26T13:57:15.022Z,100713.00
2019-06-26T14:00:14.501Z,100765.94
2019-06-26T14:02:57.589Z,100725.45
2019-06-26T14:05:53.089Z,100728.69
2019-06-26T14:11:47.509Z,100724.11
2019-06-26T14:14:20.548Z,100699.13
2019-06-26T14:16:51.062Z,100666.12
2019-06-26T14:19:21.537Z,100659.70
2019-06-26T14:21:52.546Z,100591.81
2019-06-26T14:24:23.996Z,100512.97
2019-06-26T14:26:54.782Z,100479.94
2019-06-26T14:29:28.371Z,100489.06
2019-06-26T14:31:58.778Z,100504.56
2019-06-26T14:34:29.886Z,100516.16
2019-06-26T14:37:00.502Z,100480.72
2019-06-26T14:39:30.928Z,100530.80
2019-06-26T14:42:04.296Z,100543.44
2019-06-26T14:44:34.582Z,100591.59
2019-06-26T14:47:04.985Z,100569.70
2019-06-26T14:49:35.304Z,100581.15
2019-06-26T14:52:05.686Z,100608.45
2019-06-26T14:54:39.373Z,100548.81
2019-06-26T14:57:09.756Z,100520.70
2019-06-26T14:59:40.884Z,100514.14
2019-06-26T15:02:11.078Z,100448.42
2019-06-26T15:04:46.161Z,100418.80
2019-06-26T15:07:16.660Z,100411.39
2019-06-26T15:09:53.228Z,100461.71
2019-06-26T15:12:27.236Z,100544.44
2019-06-26T15:14:58.860Z,100676.51
2019-06-26T15:17:29.396Z,100824.90
2019-06-26T15:20:02.375Z,100881.25
2019-06-26T15:22:33.023Z,100881.25
2019-06-26T15:25:06.567Z,100915.68
2019-06-26T15:27:39.467Z,100858.59
2019-06-26T15:30:13.274Z,100882.75
2019-06-26T15:32:43.591Z,100953.47
2019-06-26T15:35:51.735Z,100994.34
2019-06-26T15:38:46.351Z,101005.47
2019-06-26T15:41:15.288Z,101072.66
2019-06-26T15:43:48.572Z,101093.26
2019-06-26T15:46:19.928Z,101070.96
2019-06-26T15:48:50.629Z,101016.09
2019-06-26T15:51:24.337Z,101015.94
2019-06-26T15:53:59.873Z,101020.63
2019-06-26T15:56:28.847Z,101040.23
2019-06-26T15:58:59.162Z,101101.50
2019-06-26T16:01:33.280Z,101156.62
2019-06-26T16:04:03.629Z,101219.12
2019-06-26T16:06:35.263Z,101212.18
2019-06-26T16:09:07.440Z,101238.55
2019-06-26T16:11:37.807Z,101156.42
2019-06-26T16:14:10.101Z,101035.15
2019-06-26T16:16:42.214Z,100979.76
2019-06-26T16:19:15.599Z,100921.69
2019-06-26T16:21:46.695Z,100860.75
2019-06-26T16:24:18.436Z,100786.56
2019-06-26T16:26:49.995Z,100752.97
2019-06-26T16:29:20.661Z,100720.95
2019-06-26T16:31:50.992Z,100733.06
2019-06-26T16:34:21.410Z,100749.59
2019-06-26T16:36:51.585Z,100724.48
2019-06-26T16:39:23.264Z,100699.04
2019-06-26T16:41:53.927Z,100694.31
2019-06-26T16:44:24.266Z,100661.65
2019-06-26T16:46:54.591Z,100695.66
2019-06-26T16:49:27.477Z,100695.66
2019-06-26T16:51:59.307Z,100700.89
2019-06-26T16:54:29.815Z,100715.88
2019-06-26T16:57:01.638Z,100725.33
2019-06-26T16:59:32.458Z,100728.08
2019-06-26T17:02:07.038Z,100721.61
2019-06-26T17:04:36.381Z,100697.35
2019-06-26T17:07:09.120Z,100720.27
2019-06-26T17:09:39.580Z,100694.47
2019-06-26T17:12:11.095Z,100689.19
2019-06-26T17:14:42.907Z,100686.55
2019-06-26T17:17:14.197Z,100665.16
2019-06-26T17:19:44.874Z,100666.50
2019-06-26T17:22:15.255Z,100683.17
2019-06-26T17:24:46.164Z,100719.91
2019-06-26T17:27:16.558Z,100754.63
2019-06-26T17:29:49.250Z,100797.14
2019-06-26T17:32:19.977Z,100814.69
2019-06-26T17:34:50.674Z,100817.72
2019-06-26T17:37:21.033Z,100845.03
2019-06-26T17:39:51.409Z,100877.07
2019-06-26T17:42:21.827Z,100901.69
2019-06-26T17:44:52.454Z,100976.33
2019-06-26T17:47:22.808Z,101011.09
2019-06-26T17:49:53.237Z,100986.80
2019-06-26T17:52:23.662Z,100973.95
2019-06-26T17:54:54.071Z,100949.63
2019-06-26T17:57:24.814Z,100932.93
2019-06-26T17:59:55.219Z,100899.16
2019-06-26T18:02:25.519Z,100901.00
2019-06-26T18:04:56.147Z,100850.91
2019-06-26T18:07:26.415Z,100835.06
2019-06-26T18:09:56.814Z,100801.50
2019-06-26T18:12:28.553Z,100766.40
2019-06-26T18:15:00.003Z,100726.61
2019-06-26T18:17:30.956Z,100724.92
2019-06-26T18:20:01.336Z,100678.42
2019-06-26T18:22:32.778Z,100629.20
2019-06-26T18:25:04.878Z,100605.63
2019-06-26T18:27:35.644Z,100544.26
2019-06-26T18:30:08.803Z,100503.18
2019-06-26T18:32:39.224Z,100437.05
2019-06-26T18:35:09.547Z,100378.95
2019-06-26T18:37:39.952Z,100316.39
2019-06-26T18:40:12.931Z,100251.13
2019-06-26T18:42:43.387Z,100212.30
2019-06-26T18:45:13.844Z,100165.89
2019-06-26T18:47:44.191Z,100143.71
2019-06-26T18:50:14.929Z,100129.39
2019-06-26T18:52:45.229Z,100117.97
2019-06-26T18:55:15.674Z,100124.86
2019-06-26T18:57:46.094Z,100126.37
2019-06-26T19:00:21.011Z,100116.63
2019-06-26T19:02:51.423Z,100122.68
2019-06-26T19:05:22.369Z,100096.14
2019-06-26T19:07:52.668Z,100068.59
2019-06-26T19:10:23.013Z,100039.84
2019-06-26T19:12:54.262Z,100027.92
2019-06-26T19:15:24.613Z,100007.61
2019-06-26T19:17:54.990Z,99999.72
2019-06-26T19:20:25.622Z,99983.10
2019-06-26T19:22:56.312Z,99959.44
2019-06-26T19:25:26.676Z,99959.94
2019-06-26T19:27:57.417Z,99939.97
2019-06-26T19:30:27.800Z,99921.64
2019-06-26T19:32:58.264Z,99905.88
2019-06-26T19:35:28.678Z,99883.72
2019-06-26T19:37:59.096Z,99854.70
2019-06-26T19:40:29.329Z,99834.74
2019-06-26T19:42:59.737Z,99805.02
2019-06-26T19:45:29.994Z,99779.87
2019-06-26T19:48:00.368Z,99749.36
2019-06-26T19:50:30.699Z,99715.33
2019-06-26T19:53:01.035Z,99690.86
2019-06-26T19:55:31.347Z,99679.60
2019-06-26T19:58:01.700Z,99666.50
2019-06-26T20:00:32.027Z,99655.61
2019-06-26T20:03:02.369Z,99641.70
2019-06-26T20:05:33.125Z,99629.64
2019-06-26T20:08:03.459Z,99622.10
2019-06-26T20:10:33.901Z,99622.94
2019-06-26T20:13:04.254Z,99629.64
2019-06-26T20:15:35.766Z,99643.04
2019-06-26T20:18:06.214Z,99656.77
2019-06-26T20:20:36.619Z,99657.45
2019-06-26T20:23:06.948Z,99664.15
2019-06-26T20:25:37.407Z,99663.14
2019-06-26T20:28:08.427Z,99667.67
2019-06-26T20:30:39.876Z,99668.00
2019-06-26T20:33:10.243Z,99672.02
2019-06-26T20:35:40.632Z,99671.19
2019-06-26T20:38:10.974Z,99677.22
2019-06-26T20:40:41.296Z,99680.56
2019-06-26T20:43:12.085Z,99683.92
2019-06-26T20:45:42.442Z,99691.80
2019-06-26T20:48:13.522Z,99684.26
2019-06-26T20:50:44.667Z,99697.86
2019-06-26T20:53:15.055Z,99709.79
2019-06-26T20:55:45.335Z,99709.79
2019-06-26T20:58:15.914Z,99707.58
2019-06-26T21:00:46.292Z,99714.15
2019-06-26T21:03:16.941Z,99726.55
2019-06-26T21:05:47.937Z,99709.92
2019-06-26T21:08:18.294Z,99725.55
2019-06-26T21:10:48.728Z,99718.17
2019-06-26T21:13:19.527Z,99707.41
2019-06-26T21:15:52.941Z,99694.64
2019-06-26T21:18:21.950Z,99680.56
2019-06-26T21:20:52.652Z,99667.16
2019-06-26T21:23:23.781Z,99659.28
2019-06-26T21:25:54.086Z,99641.02
2019-06-26T21:28:24.957Z,99620.92
2019-06-26T21:30:55.678Z,99612.37
2019-06-26T21:33:26.811Z,99587.72
2019-06-26T21:35:57.129Z,99561.92
2019-06-26T21:38:27.769Z,99540.16
2019-06-26T21:40:58.400Z,99527.27
2019-06-26T21:43:29.313Z,99506.33
2019-06-26T21:45:59.644Z,99496.63
2019-06-26T21:48:30.407Z,99487.42
2019-06-26T21:51:00.699Z,99481.89
2019-06-26T21:53:33.346Z,99481.39
2019-06-26T21:56:04.964Z,99480.19
2019-06-26T21:58:35.483Z,99489.42
2019-06-26T22:01:05.788Z,99505.00
2019-06-26T22:03:36.702Z,99516.04
2019-06-26T22:06:07.018Z,99519.05
2019-06-26T22:08:40.041Z,99529.44
2019-06-26T22:11:10.647Z,99543.00
2019-06-26T22:13:40.972Z,99560.41
2019-06-26T22:16:12.160Z,99569.63
2019-06-26T22:18:42.532Z,99570.96
2019-06-26T22:21:12.854Z,99575.31
2019-06-26T22:23:43.181Z,99586.20
2019-06-26T22:26:15.597Z,99582.35
2019-06-26T22:28:46.257Z,99575.82
2019-06-26T22:31:16.642Z,99565.27
2019-06-26T22:33:47.214Z,99558.91
2019-06-26T22:36:17.534Z,99535.46
2019-06-26T22:38:47.857Z,99520.06
2019-06-26T22:41:18.501Z,99509.68
2019-06-26T22:43:49.284Z,99521.23
2019-06-26T22:46:20.289Z,99515.03
2019-06-26T22:48:52.028Z,99552.88
2019-06-26T22:51:22.351Z,99526.75
2019-06-26T22:53:52.797Z,99526.42
2019-06-26T22:56:23.246Z,99535.63
2019-06-26T22:58:54.015Z,99528.77
2019-06-26T23:01:24.371Z,99527.08
2019-06-26T23:03:54.723Z,99545.33
2019-06-26T23:06:25.020Z,99545.17
2019-06-26T23:08:55.418Z,99541.31
2019-06-26T23:11:26.152Z,99517.38
2019-06-26T23:13:56.456Z,99514.36
2019-06-26T23:16:27.149Z,99524.07
2019-06-26T23:18:57.817Z,99504.79
2019-06-26T23:21:28.307Z,99485.88
2019-06-26T23:23:59.816Z,99487.88
2019-06-26T23:26:30.485Z,99497.42
2019-06-26T23:29:00.827Z,99506.30
2019-06-26T23:31:31.188Z,99502.61
2019-06-26T23:34:01.563Z,99464.45
2019-06-26T23:36:32.877Z,99422.27
2019-06-26T23:39:03.779Z,99389.62
2019-06-26T23:41:34.087Z,99390.48
2019-06-26T23:44:04.469Z,99336.09
2019-06-26T23:46:34.752Z,99303.14
2019-06-26T23:49:05.436Z,99268.70
2019-06-26T23:51:36.344Z,99209.80
2019-06-26T23:54:06.692Z,99164.68
2019-06-26T23:56:40.670Z,99130.73
2019-06-26T23:59:09.054Z,99110.69
